Malaga Aeropuerto en Andalucia

latitud = 36° 39' 58''N | longitud = 004° 28' 56''W
5 metros sobre el nivel del mar |

Fecha, hora, temperatura, viento dirección y velocidad, humedad y presión.

  • 14-10-2018 19:00:00 | 21.10°C | Oeste |26.00 km/h | 42.00% | 1010.60 hPa
  • 14-10-2018 18:00:00 | 21.70°C | Noroeste |24.00 km/h | 41.00% | 1010.30 hPa
  • 14-10-2018 16:00:00 | 22.60°C | Noroeste |33.00 km/h | 44.00% | 1010.50 hPa
  • 14-10-2018 15:00:00 | 22.50°C | Noroeste |32.00 km/h | 48.00% | 1010.30 hPa
  • 14-10-2018 14:00:00 | 22.50°C | Noroeste |25.00 km/h | 53.00% | 1010.50 hPa
  • 14-10-2018 13:00:00 | 21.20°C | Noroeste |17.00 km/h | 70.00% | 1010.70 hPa
  • 14-10-2018 12:00:00 | 18.70°C | Oeste |9.00 km/h | 95.00% | 1011.00 hPa
  • 14-10-2018 11:00:00 | 18.50°C | Oeste |21.00 km/h | 94.00% | 1010.90 hPa
  • 14-10-2018 10:00:00 | 21.40°C | Sudeste |13.00 km/h | 91.00% | 1009.60 hPa
  • 14-10-2018 09:00:00 | 21.40°C | Sudeste |9.00 km/h | 88.00% | 1009.60 hPa
  • 14-10-2018 08:00:00 | 21.10°C | Sur |9.00 km/h | 89.00% | 1010.20 hPa
  • 14-10-2018 07:00:00 | 21.20°C | Sur |10.00 km/h | 90.00% | 1010.50 hPa
  • 14-10-2018 06:00:00 | 20.70°C | Sur |8.00 km/h | 92.00% | 1010.90 hPa
  • 14-10-2018 05:00:00 | 20.20°C | Este |3.00 km/h | 90.00% | 1011.30 hPa
  • 14-10-2018 04:00:00 | 20.50°C | Oeste |9.00 km/h | 90.00% | 1011.90 hPa
  • 14-10-2018 03:00:00 | 20.90°C | Noroeste |6.00 km/h | 87.00% | 1012.30 hPa
  • 14-10-2018 02:00:00 | 21.20°C | Oeste |6.00 km/h | 86.00% | 1012.60 hPa
  • 14-10-2018 01:00:00 | 21.40°C | Noroeste |2.00 km/h | 88.00% | 1013.40 hPa
  • 14-10-2018 00:00:00 | 21.30°C | Sur |3.00 km/h | 88.00% | 1014.00 hPa
  • 13-10-2018 23:00:00 | 21.90°C | Sur |5.00 km/h | 87.00% | 1014.20 hPa
  • 13-10-2018 22:00:00 | 22.30°C | Sudeste |6.00 km/h | 87.00% | 1014.40 hPa
  • 13-10-2018 21:00:00 | 22.30°C | Sudeste |5.00 km/h | 87.00% | 1014.50 hPa
  • 13-10-2018 20:00:00 | 22.80°C | Sudeste |7.00 km/h | 84.00% | 1014.40 hPa
  • 13-10-2018 19:00:00 | 24.20°C | Sudeste |10.00 km/h | 79.00% | 1014.40 hPa
    • Datos gráficos mensuales de Malaga Aeropuerto: